createdAt,value
2018-09-20T00:01:22.321Z,99654.98
2018-09-20T00:03:52.851Z,99649.22
2018-09-20T00:06:23.263Z,99646.52
2018-09-20T00:08:53.052Z,99647.61
2018-09-20T00:11:23.222Z,99644.95
2018-09-20T00:13:53.305Z,99646.28
2018-09-20T00:16:23.399Z,99647.08
2018-09-20T00:18:53.928Z,99649.72
2018-09-20T00:21:23.807Z,99643.08
2018-09-20T00:23:53.585Z,99640.09
2018-09-20T00:26:24.009Z,99644.12
2018-09-20T00:28:54.629Z,99643.34
2018-09-20T00:31:25.057Z,99643.11
2018-09-20T00:33:55.187Z,99649.01
2018-09-20T00:36:25.156Z,99645.01
2018-09-20T00:38:56.659Z,99645.01
2018-09-20T00:41:27.329Z,99644.77
2018-09-20T00:43:57.886Z,99642.91
2018-09-20T00:46:28.416Z,99646.92
2018-09-20T00:48:58.506Z,99652.55
2018-09-20T00:51:29.156Z,99650.42
2018-09-20T00:54:00.400Z,99653.91
2018-09-20T00:56:31.113Z,99648.02
2018-09-20T00:59:01.254Z,99655.45
2018-09-20T01:01:32.145Z,99644.53
2018-09-20T01:09:29.210Z,99644.56
2018-09-20T01:11:59.469Z,99644.29
2018-09-20T01:14:31.309Z,99641.36
2018-09-20T01:17:01.901Z,99635.73
2018-09-20T01:19:32.441Z,99640.53
2018-09-20T01:22:02.881Z,99640.00
2018-09-20T01:24:33.047Z,99639.23
2018-09-20T01:27:03.317Z,99642.16
2018-09-20T01:29:34.205Z,99641.09
2018-09-20T01:32:04.647Z,99639.70
2018-09-20T01:34:34.828Z,99643.49
2018-09-20T01:37:05.211Z,99649.63
2018-09-20T01:39:35.363Z,99644.80
2018-09-20T01:42:05.662Z,99645.06
2018-09-20T01:44:36.312Z,99652.55
2018-09-20T01:47:07.495Z,99647.77
2018-09-20T01:49:38.238Z,99646.73
2018-09-20T01:52:08.557Z,99648.84
2018-09-20T01:54:38.721Z,99648.33
2018-09-20T01:57:09.562Z,99648.89
2018-09-20T01:59:39.805Z,99648.36
2018-09-20T02:02:10.553Z,99647.27
2018-09-20T02:04:40.868Z,99649.95
2018-09-20T02:07:12.015Z,99652.11
2018-09-20T02:09:42.006Z,99656.34
2018-09-20T02:12:13.509Z,99653.70
2018-09-20T02:14:43.795Z,99655.83
2018-09-20T02:17:14.035Z,99652.37
2018-09-20T02:19:44.322Z,99653.43
2018-09-20T02:22:15.096Z,99646.53
2018-09-20T02:24:45.260Z,99652.40
2018-09-20T02:27:15.794Z,99652.38
2018-09-20T02:29:46.288Z,99660.39
2018-09-20T02:32:17.324Z,99662.27
2018-09-20T02:34:47.477Z,99667.09
2018-09-20T02:37:17.613Z,99678.77
2018-09-20T02:39:48.230Z,99670.01
2018-09-20T02:42:18.656Z,99675.31
2018-09-20T02:44:49.271Z,99665.75
2018-09-20T02:47:20.183Z,99661.48
2018-09-20T02:49:50.552Z,99667.89
2018-09-20T02:52:22.053Z,99669.48
2018-09-20T02:54:52.941Z,99673.47
2018-09-20T02:57:22.982Z,99673.19
2018-09-20T02:59:55.336Z,99672.13
2018-09-20T03:02:25.652Z,99675.05
2018-09-20T03:04:57.062Z,99647.94
2018-09-20T03:07:27.325Z,99666.80
2018-09-20T03:09:58.929Z,99643.41
2018-09-20T03:12:29.285Z,99661.50
2018-09-20T03:14:59.902Z,99659.89
2018-09-20T03:17:31.700Z,99659.34
2018-09-20T03:20:06.619Z,99656.17
2018-09-20T03:22:38.785Z,99656.98
2018-09-20T03:25:09.489Z,99655.63
2018-09-20T03:27:39.965Z,99666.78
2018-09-20T03:30:10.651Z,99672.11
2018-09-20T03:32:41.907Z,99672.09
2018-09-20T03:35:12.020Z,99671.59
2018-09-20T03:37:42.271Z,99665.17
2018-09-20T03:40:13.031Z,99663.58
2018-09-20T03:42:43.528Z,99663.03
2018-09-20T03:45:13.801Z,99662.22
2018-09-20T03:47:44.684Z,99670.21
2018-09-20T03:50:14.812Z,99661.96
2018-09-20T03:52:45.661Z,99665.96
2018-09-20T03:55:16.149Z,99666.47
2018-09-20T03:57:46.457Z,99663.02
2018-09-20T04:00:16.813Z,99659.56
2018-09-20T04:02:48.040Z,99657.67
2018-09-20T04:05:18.101Z,99624.16
2018-09-20T04:07:48.733Z,99652.34
2018-09-20T04:10:19.118Z,99655.26
2018-09-20T04:12:49.862Z,99640.87
2018-09-20T04:15:20.284Z,99662.94
2018-09-20T04:17:51.154Z,99653.59
2018-09-20T04:20:22.875Z,99654.17
2018-09-20T04:22:53.302Z,99668.78
2018-09-20T04:25:23.965Z,99664.27
2018-09-20T04:27:54.494Z,99662.39
2018-09-20T04:30:24.682Z,99663.72
2018-09-20T04:32:55.079Z,99666.66
2018-09-20T04:35:25.291Z,99668.77
2018-09-20T04:37:56.546Z,99639.75
2018-09-20T04:40:27.878Z,99669.52
2018-09-20T04:42:58.766Z,99669.76
2018-09-20T04:45:29.025Z,99675.92
2018-09-20T04:47:59.341Z,99671.43
2018-09-20T04:50:29.470Z,99667.19
2018-09-20T04:52:59.573Z,99672.52
2018-09-20T04:55:29.886Z,99674.09
2018-09-20T04:58:00.205Z,99670.66
2018-09-20T05:00:30.068Z,99677.05
2018-09-20T05:03:00.347Z,99681.02
2018-09-20T05:05:32.535Z,99683.41
2018-09-20T05:08:04.154Z,99683.95
2018-09-20T05:10:34.543Z,99683.17
2018-09-20T05:13:06.632Z,99679.98
2018-09-20T05:15:36.628Z,99688.99
2018-09-20T05:18:07.422Z,99685.30
2018-09-20T05:20:37.609Z,99662.64
2018-09-20T05:23:07.663Z,99687.20
2018-09-20T05:25:37.815Z,99686.92
2018-09-20T05:28:08.100Z,99681.89
2018-09-20T05:30:39.136Z,99689.59
2018-09-20T05:33:09.259Z,99694.41
2018-09-20T05:35:40.162Z,99665.94
2018-09-20T05:38:12.156Z,99697.08
2018-09-20T05:40:43.189Z,99702.17
2018-09-20T05:43:14.619Z,99699.53
2018-09-20T05:45:44.663Z,99693.16
2018-09-20T05:48:15.343Z,99692.88
2018-09-20T05:50:46.197Z,99694.50
2018-09-20T05:53:16.932Z,99695.02
2018-09-20T05:55:48.092Z,99697.66
2018-09-20T05:58:22.695Z,99701.66
2018-09-20T06:00:53.487Z,99706.98
2018-09-20T06:03:25.333Z,99697.38
2018-09-20T06:05:57.818Z,99692.03
2018-09-20T06:08:28.510Z,99690.41
2018-09-20T06:10:59.290Z,99689.56
2018-09-20T06:13:29.162Z,99695.36
2018-09-20T06:15:59.291Z,99690.27
2018-09-20T06:18:29.365Z,99692.37
2018-09-20T06:20:59.417Z,99695.84
2018-09-20T06:23:30.103Z,99692.30
2018-09-20T06:26:00.048Z,99694.17
2018-09-20T06:28:31.340Z,99680.84
2018-09-20T06:31:02.355Z,99694.41
2018-09-20T06:33:32.732Z,99697.38
2018-09-20T06:36:03.366Z,99694.50
2018-09-20T06:38:34.006Z,99704.87
2018-09-20T06:41:05.465Z,99701.91
2018-09-20T06:43:35.973Z,99695.51
2018-09-20T06:46:07.676Z,99695.51
2018-09-20T06:48:40.650Z,99692.01
2018-09-20T06:51:13.010Z,99690.97
2018-09-20T06:53:43.287Z,99694.14
2018-09-20T06:56:14.179Z,99696.16
2018-09-20T06:58:44.587Z,99699.51
2018-09-20T07:01:15.473Z,99699.91
2018-09-20T07:03:47.977Z,99695.99
2018-09-20T07:06:21.002Z,99683.55
2018-09-20T07:08:51.759Z,99682.41
2018-09-20T07:11:22.894Z,99681.09
2018-09-20T07:13:53.849Z,99687.44
2018-09-20T07:16:24.460Z,99685.29
2018-09-20T07:18:56.590Z,99687.16
2018-09-20T07:21:29.327Z,99689.11
2018-09-20T07:23:59.562Z,99697.91
2018-09-20T07:26:30.705Z,99689.30
2018-09-20T07:29:02.756Z,99687.70
2018-09-20T07:31:36.089Z,99683.02
2018-09-20T07:34:07.415Z,99692.11
2018-09-20T07:36:37.483Z,99681.73
2018-09-20T07:39:11.755Z,99686.73
2018-09-20T07:41:43.482Z,99686.13
2018-09-20T07:44:13.331Z,99688.17
2018-09-20T07:46:47.222Z,99684.90
2018-09-20T07:49:20.152Z,99684.00
2018-09-20T07:51:50.931Z,99681.80
2018-09-20T07:54:21.055Z,99679.94
2018-09-20T07:56:52.098Z,99671.66
2018-09-20T07:59:24.302Z,99678.80
2018-09-20T08:01:55.375Z,99670.88
2018-09-20T08:04:31.148Z,99666.94
2018-09-20T08:07:05.082Z,99666.78
2018-09-20T08:09:35.129Z,99668.12
2018-09-20T08:12:05.688Z,99665.81
2018-09-20T08:14:36.537Z,99665.19
2018-09-20T08:17:18.706Z,99662.08
2018-09-20T08:19:51.241Z,99639.76
2018-09-20T08:22:25.062Z,99658.80
2018-09-20T08:24:59.734Z,99653.67
2018-09-20T08:27:31.547Z,99657.27
2018-09-20T08:30:04.197Z,99657.87
2018-09-20T08:32:34.980Z,99655.22
2018-09-20T08:35:06.340Z,99662.86
2018-09-20T08:37:36.298Z,99658.97
2018-09-20T08:40:07.815Z,99655.47
2018-09-20T08:42:42.879Z,99658.20
2018-09-20T08:45:14.772Z,99657.71
2018-09-20T08:47:45.022Z,99656.51
2018-09-20T08:50:15.514Z,99661.44
2018-09-20T08:52:45.873Z,99660.48
2018-09-20T08:55:19.638Z,99657.60
2018-09-20T08:57:53.646Z,99655.52
2018-09-20T09:00:28.333Z,99649.27
2018-09-20T09:03:07.812Z,99659.41
2018-09-20T09:05:38.206Z,99650.99
2018-09-20T09:08:13.564Z,99648.39
2018-09-20T09:10:48.906Z,99645.27
2018-09-20T09:13:19.756Z,99645.17
2018-09-20T09:15:51.769Z,99631.23
2018-09-20T09:18:24.561Z,99583.77
2018-09-20T09:20:56.731Z,99637.43
2018-09-20T09:23:29.668Z,99630.67
2018-09-20T09:26:02.540Z,99625.96
2018-09-20T09:28:35.378Z,99618.17
2018-09-20T09:31:05.936Z,99617.31
2018-09-20T09:33:36.936Z,99610.76
2018-09-20T09:36:13.201Z,99612.48
2018-09-20T09:38:43.562Z,99613.81
2018-09-20T09:41:17.220Z,99604.06
2018-09-20T09:43:50.209Z,99600.81
2018-09-20T09:46:28.200Z,99593.12
2018-09-20T09:48:58.734Z,99596.05
2018-09-20T09:51:31.250Z,99596.11
2018-09-20T09:54:02.446Z,99596.97
2018-09-20T09:56:37.451Z,99592.13
2018-09-20T09:59:10.987Z,99577.73
2018-09-20T10:01:41.586Z,99582.37
2018-09-20T10:04:14.165Z,99578.27
2018-09-20T10:06:46.876Z,99575.23
2018-09-20T10:09:18.714Z,99566.79
2018-09-20T10:11:49.592Z,99564.80
2018-09-20T10:14:20.501Z,99563.61
2018-09-20T10:16:53.335Z,99542.66
2018-09-20T10:19:29.010Z,99566.48
2018-09-20T10:22:04.904Z,99560.61
2018-09-20T10:24:37.695Z,99558.35
2018-09-20T10:27:09.051Z,99556.52
2018-09-20T10:29:40.451Z,99547.71
2018-09-20T10:32:12.299Z,99557.19
2018-09-20T10:34:45.442Z,99559.09
2018-09-20T10:37:24.131Z,99551.55
2018-09-20T10:39:55.446Z,99553.80
2018-09-20T10:42:30.714Z,99555.64
2018-09-20T10:45:01.749Z,99542.41
2018-09-20T10:47:35.759Z,99539.03
2018-09-20T10:50:06.730Z,99543.08
2018-09-20T10:52:37.740Z,99505.54
2018-09-20T10:55:08.780Z,99520.97
2018-09-20T10:57:39.511Z,99531.74
2018-09-20T11:00:10.794Z,99519.82
2018-09-20T11:02:42.094Z,99527.68
2018-09-20T11:05:13.530Z,99515.22
2018-09-20T11:07:45.590Z,99516.27
2018-09-20T11:10:16.732Z,99507.57
2018-09-20T11:12:47.727Z,99507.81
2018-09-20T11:15:18.853Z,99505.81
2018-09-20T11:17:49.992Z,99511.82
2018-09-20T11:20:21.472Z,99519.41
2018-09-20T11:22:52.792Z,99505.89
2018-09-20T11:25:26.519Z,99497.48
2018-09-20T11:27:57.539Z,99502.60
2018-09-20T11:30:29.062Z,99504.72
2018-09-20T11:33:00.827Z,99492.64
2018-09-20T11:35:32.176Z,99490.08
2018-09-20T11:38:03.768Z,99493.06
2018-09-20T11:40:36.216Z,99463.19
2018-09-20T11:43:08.690Z,99492.45
2018-09-20T11:45:39.731Z,99496.01
2018-09-20T11:48:10.381Z,99482.02
2018-09-20T11:50:40.447Z,99476.66
2018-09-20T11:53:12.168Z,99476.21
2018-09-20T11:55:42.217Z,99465.49
2018-09-20T11:58:12.348Z,99460.02
2018-09-20T12:00:42.565Z,99460.36
2018-09-20T12:03:13.131Z,99458.34
2018-09-20T12:05:43.623Z,99454.05
2018-09-20T12:08:14.862Z,99456.56
2018-09-20T12:10:45.474Z,99454.76
2018-09-20T12:13:16.262Z,99442.63
2018-09-20T12:15:46.549Z,99448.36
2018-09-20T12:18:17.820Z,99442.17
2018-09-20T12:20:47.903Z,99443.80
2018-09-20T12:23:18.361Z,99442.69
2018-09-20T12:25:50.076Z,99436.81
2018-09-20T12:28:20.390Z,99432.20
2018-09-20T12:30:50.735Z,99414.53
2018-09-20T12:33:21.858Z,99416.20
2018-09-20T12:35:52.817Z,99421.70
2018-09-20T12:38:24.188Z,99413.81
2018-09-20T12:40:56.949Z,99411.34
2018-09-20T12:43:31.239Z,99415.70
2018-09-20T12:46:08.181Z,99408.72
2018-09-20T12:48:39.298Z,99405.24
2018-09-20T12:51:11.253Z,99408.95
2018-09-20T12:53:44.315Z,99405.98
2018-09-20T12:56:14.407Z,99401.05
2018-09-20T12:58:51.901Z,99398.01
2018-09-20T13:01:23.430Z,99392.08
2018-09-20T13:03:54.286Z,99385.34
2018-09-20T13:06:24.429Z,99377.42
2018-09-20T13:08:58.007Z,99387.03
2018-09-20T13:11:32.585Z,99400.91
2018-09-20T13:14:08.311Z,99392.00
2018-09-20T13:16:41.589Z,99390.08
2018-09-20T13:19:13.051Z,99386.02
2018-09-20T13:21:44.015Z,99380.86
2018-09-20T13:24:14.299Z,99397.27
2018-09-20T13:26:46.258Z,99377.14
2018-09-20T13:29:21.920Z,99368.87
2018-09-20T13:31:58.118Z,99367.92
2018-09-20T13:34:29.876Z,99363.80
2018-09-20T13:37:01.089Z,99360.50
2018-09-20T13:39:31.563Z,99367.03
2018-09-20T13:42:05.046Z,99364.45
2018-09-20T13:44:39.296Z,99366.67
2018-09-20T13:47:11.051Z,99361.89
2018-09-20T13:49:47.127Z,99354.22
2018-09-20T13:52:17.759Z,99360.95
2018-09-20T13:54:49.393Z,99346.89
2018-09-20T13:57:21.764Z,99358.95
2018-09-20T13:59:56.500Z,99335.98
2018-09-20T14:02:32.420Z,99346.62
2018-09-20T14:05:14.280Z,99344.86
2018-09-20T14:07:52.435Z,99344.58
2018-09-20T14:10:28.522Z,99349.72
2018-09-20T14:13:11.092Z,99345.00
2018-09-20T14:15:46.728Z,99335.33
2018-09-20T14:18:23.445Z,99343.52
2018-09-20T14:20:58.556Z,99338.41
2018-09-20T14:23:33.222Z,99330.31
2018-09-20T14:26:06.329Z,99328.88
2018-09-20T14:28:46.712Z,99326.57
2018-09-20T14:31:28.498Z,99330.06
2018-09-20T14:34:11.919Z,99327.22
2018-09-20T14:36:48.568Z,99330.15
2018-09-20T14:39:24.348Z,99317.94
2018-09-20T14:41:56.827Z,99329.14
2018-09-20T14:44:34.887Z,99326.32
2018-09-20T14:47:08.290Z,99317.56
2018-09-20T14:49:43.379Z,99313.69
2018-09-20T14:52:18.956Z,99309.17
2018-09-20T14:54:51.637Z,99311.78
2018-09-20T14:57:22.647Z,99314.89
2018-09-20T14:59:53.842Z,99308.22
2018-09-20T15:02:26.034Z,99312.39
2018-09-20T15:04:56.764Z,99305.52
2018-09-20T15:07:30.612Z,99304.33
2018-09-20T15:10:02.366Z,99314.25
2018-09-20T15:12:33.157Z,99305.38
2018-09-20T15:15:04.265Z,99314.96
2018-09-20T15:17:39.184Z,99314.31
2018-09-20T15:20:12.491Z,99310.59
2018-09-20T15:22:44.276Z,99301.73
2018-09-20T15:25:14.559Z,99307.83
2018-09-20T15:27:45.099Z,99303.40
2018-09-20T15:30:16.264Z,99304.38
2018-09-20T15:32:47.437Z,99302.41
2018-09-20T15:35:18.802Z,99293.83
2018-09-20T15:37:50.378Z,99303.22
2018-09-20T15:40:21.500Z,99295.66
2018-09-20T15:42:51.699Z,99292.78
2018-09-20T15:45:23.831Z,99294.63
2018-09-20T15:47:54.454Z,99293.66
2018-09-20T15:50:26.279Z,99286.14
2018-09-20T15:52:59.541Z,99284.79
2018-09-20T15:55:37.252Z,99295.39
2018-09-20T15:58:10.134Z,99285.73
2018-09-20T16:00:45.579Z,99288.66
2018-09-20T16:03:18.675Z,99286.19
2018-09-20T16:05:54.759Z,99283.50
2018-09-20T16:08:27.816Z,99275.63
2018-09-20T16:11:01.379Z,99276.86
2018-09-20T16:13:33.947Z,99277.89
2018-09-20T16:16:08.592Z,99277.79
2018-09-20T16:18:42.526Z,99275.42
2018-09-20T16:21:16.984Z,99274.73
2018-09-20T16:23:50.231Z,99273.73
2018-09-20T16:26:26.480Z,99270.91
2018-09-20T16:35:28.730Z,99268.95
2018-09-20T16:38:12.011Z,99262.37
2018-09-20T16:40:47.186Z,99269.80
2018-09-20T16:43:24.353Z,99264.34
2018-09-20T16:45:59.141Z,99263.07
2018-09-20T16:48:30.749Z,99246.64
2018-09-20T16:51:05.659Z,99259.98
2018-09-20T16:53:36.882Z,99252.90
2018-09-20T16:56:09.625Z,99257.62
2018-09-20T16:58:45.625Z,99249.95
2018-09-20T17:01:16.975Z,99251.87
2018-09-20T17:03:49.104Z,99255.63
2018-09-20T17:06:20.398Z,99247.84
2018-09-20T17:08:52.047Z,99257.14
2018-09-20T17:11:22.834Z,99252.38
2018-09-20T17:13:52.791Z,99253.27
2018-09-20T17:16:24.494Z,99254.81
2018-09-20T17:18:54.977Z,99253.20
2018-09-20T17:21:25.937Z,99255.94
2018-09-20T17:23:56.279Z,99263.71
2018-09-20T17:26:28.506Z,99253.87
2018-09-20T17:29:00.439Z,99263.77
2018-09-20T17:31:31.527Z,99262.75
2018-09-20T17:34:06.469Z,99261.02
2018-09-20T17:36:38.623Z,99262.61
2018-09-20T17:39:13.436Z,99254.73
2018-09-20T17:41:45.653Z,99255.38
2018-09-20T17:44:16.690Z,99254.64
2018-09-20T17:46:46.600Z,99255.08
2018-09-20T17:49:20.807Z,99260.67
2018-09-20T17:51:52.830Z,99252.69
2018-09-20T17:54:27.037Z,99236.22
2018-09-20T17:56:58.913Z,99245.21
2018-09-20T17:59:29.825Z,99252.54
2018-09-20T18:02:04.388Z,99249.84
2018-09-20T18:04:38.391Z,99258.72
2018-09-20T18:07:10.939Z,99259.77
2018-09-20T18:09:45.358Z,99263.67
2018-09-20T18:12:18.602Z,99255.49
2018-09-20T18:14:49.747Z,99263.22
2018-09-20T18:17:23.260Z,99258.59
2018-09-20T18:19:55.072Z,99253.55
2018-09-20T18:22:27.548Z,99255.26
2018-09-20T18:25:00.980Z,99260.16
2018-09-20T18:27:34.271Z,99252.88
2018-09-20T18:30:05.548Z,99260.58
2018-09-20T18:32:36.498Z,99261.87
2018-09-20T18:35:09.689Z,99259.48
2018-09-20T18:37:42.202Z,99260.27
2018-09-20T18:40:26.871Z,99260.44
2018-09-20T18:43:00.130Z,99257.27
2018-09-20T18:45:34.711Z,99261.58
2018-09-20T18:48:14.267Z,99256.81
2018-09-20T18:50:47.226Z,99255.84
2018-09-20T18:53:23.050Z,99251.12
2018-09-20T18:56:00.779Z,99251.67
2018-09-20T18:58:37.763Z,99255.66
2018-09-20T19:01:11.829Z,99258.44
2018-09-20T19:03:44.135Z,99253.78
2018-09-20T19:06:19.549Z,99253.92
2018-09-20T19:08:51.219Z,99252.95
2018-09-20T19:11:27.784Z,99250.92
2018-09-20T19:14:02.992Z,99254.78
2018-09-20T19:16:35.937Z,99250.73
2018-09-20T19:19:12.790Z,99252.42
2018-09-20T19:21:44.254Z,99254.02
2018-09-20T19:24:16.422Z,99254.53
2018-09-20T19:26:47.493Z,99256.09
2018-09-20T19:29:19.784Z,99247.97
2018-09-20T19:31:50.715Z,99248.55
2018-09-20T19:34:21.364Z,99242.91
2018-09-20T19:36:52.310Z,99247.88
2018-09-20T19:39:22.698Z,99250.63
2018-09-20T19:41:57.708Z,99245.47
2018-09-20T19:44:32.678Z,99243.42
2018-09-20T19:47:05.319Z,99243.02
2018-09-20T19:49:38.625Z,99239.59
2018-09-20T19:52:11.009Z,99229.19
2018-09-20T19:54:41.948Z,99234.28
2018-09-20T19:57:13.858Z,99234.90
2018-09-20T19:59:44.797Z,99231.57
2018-09-20T20:02:15.708Z,99236.66
2018-09-20T20:04:47.900Z,99233.11
2018-09-20T20:07:19.499Z,99231.78
2018-09-20T20:09:50.502Z,99229.06
2018-09-20T20:12:23.570Z,99227.31
2018-09-20T20:14:56.346Z,99222.49
2018-09-20T20:17:29.105Z,99224.34
2018-09-20T20:19:59.596Z,99224.83
2018-09-20T20:22:29.725Z,99216.64
2018-09-20T20:25:00.200Z,99216.64
2018-09-20T20:27:30.576Z,99210.92
2018-09-20T20:30:01.102Z,99214.59
2018-09-20T20:32:33.932Z,99213.61
2018-09-20T20:35:04.659Z,99209.98
2018-09-20T20:37:35.834Z,99207.61
2018-09-20T20:40:08.177Z,99207.45
2018-09-20T20:42:39.058Z,99208.02
2018-09-20T20:45:11.159Z,99206.20
2018-09-20T20:47:42.299Z,99199.70
2018-09-20T20:50:12.758Z,99198.88
2018-09-20T20:52:43.985Z,99193.05
2018-09-20T20:55:14.589Z,99201.09
2018-09-20T20:57:46.058Z,99199.56
2018-09-20T21:00:18.577Z,99196.97
2018-09-20T21:02:49.707Z,99201.77
2018-09-20T21:05:21.502Z,99192.52
2018-09-20T21:07:52.664Z,99191.23
2018-09-20T21:10:23.407Z,99184.31
2018-09-20T21:12:55.436Z,99191.11
2018-09-20T21:15:26.889Z,99180.20
2018-09-20T21:17:57.966Z,99177.26
2018-09-20T21:20:30.396Z,99176.45
2018-09-20T21:23:02.499Z,99168.95
2018-09-20T21:25:32.890Z,99166.62
2018-09-20T21:28:03.565Z,99171.45
2018-09-20T21:30:34.685Z,99162.19
2018-09-20T21:33:06.664Z,99130.48
2018-09-20T21:35:38.299Z,99154.00
2018-09-20T21:38:09.644Z,99158.83
2018-09-20T21:40:42.079Z,99147.40
2018-09-20T21:43:14.947Z,99145.05
2018-09-20T21:45:46.169Z,99146.94
2018-09-20T21:48:17.035Z,99140.37
2018-09-20T21:50:48.124Z,99139.58
2018-09-20T21:53:18.506Z,99141.23
2018-09-20T21:55:48.990Z,99130.91
2018-09-20T21:58:19.273Z,99131.23
2018-09-20T22:00:50.856Z,99130.49
2018-09-20T22:03:23.936Z,99132.87
2018-09-20T22:05:55.429Z,99128.62
2018-09-20T22:08:30.404Z,99124.70
2018-09-20T22:11:02.605Z,99108.34
2018-09-20T22:13:33.656Z,99119.16
2018-09-20T22:16:05.154Z,99127.14
2018-09-20T22:18:37.718Z,99122.66
2018-09-20T22:21:11.538Z,99126.66
2018-09-20T22:23:43.514Z,99122.42
2018-09-20T22:26:15.448Z,99119.00
2018-09-20T22:28:46.366Z,99119.23
2018-09-20T22:31:17.049Z,99098.05
2018-09-20T22:33:48.148Z,99110.22
2018-09-20T22:36:21.845Z,99102.78
2018-09-20T22:38:55.807Z,99105.70
2018-09-20T22:41:27.210Z,99107.56
2018-09-20T22:43:57.603Z,99103.05
2018-09-20T22:46:30.842Z,99096.13
2018-09-20T22:49:02.890Z,99090.30
2018-09-20T22:51:35.254Z,99090.06
2018-09-20T22:54:06.025Z,99082.09
2018-09-20T22:56:36.664Z,99085.32
2018-09-20T22:59:07.250Z,99080.81
2018-09-20T23:01:38.109Z,99082.40
2018-09-20T23:04:08.420Z,99078.64
2018-09-20T23:06:39.139Z,99077.84
2018-09-20T23:09:10.941Z,99071.45
2018-09-20T23:11:42.018Z,99077.52
2018-09-20T23:14:13.565Z,99070.61
2018-09-20T23:16:46.398Z,99068.21
2018-09-20T23:19:16.532Z,99060.70
2018-09-20T23:21:46.375Z,99064.04
2018-09-20T23:24:16.688Z,99060.94
2018-09-20T23:26:46.927Z,99053.83
2018-09-20T23:29:17.968Z,99052.56
2018-09-20T23:31:48.452Z,99044.98
2018-09-20T23:34:18.941Z,99045.48
2018-09-20T23:36:49.081Z,99046.75
2018-09-20T23:39:19.823Z,99037.05
2018-09-20T23:41:49.919Z,99037.34
2018-09-20T23:44:20.016Z,99036.00
2018-09-20T23:46:50.359Z,99036.95
2018-09-20T23:49:20.523Z,99032.37
2018-09-20T23:51:51.603Z,99032.28
2018-09-20T23:54:23.496Z,99026.03
2018-09-20T23:56:54.329Z,99028.45
2018-09-20T23:59:25.703Z,99021.48
